Time;durP1;ratioP1;P1;durP2;ratioP2;P2;SDS_P1;SDS_P2;PMS_P1;PMS_P2;Temp;Humidity;BMP_temperature;BMP_pressure;BME280_temperature;BME280_humidity;BME280_pressure;Samples;Min_cycle;Max_cycle;Signal;HPM_P1;HPM_P2
2022/12/24 00:01:32;;;;;;;18.50;10.43;;;;;;;-0.23;78.04;101344.77;1964837;73;21112;-47
2022/12/24 00:04:01;;;;;;;17.50;9.45;;;;;;;-0.31;78.44;101352.86;1964832;73;21094;-47
2022/12/24 00:06:29;;;;;;;19.57;9.75;;;;;;;-0.34;78.45;101345.89;1964968;73;21100;-45
2022/12/24 00:08:58;;;;;;;17.37;7.67;;;;;;;-0.35;78.60;101345.47;1964813;73;21027;-46
2022/12/24 00:11:27;;;;;;;21.67;10.23;;;;;;;-0.37;78.69;101348.86;1964837;73;21035;-47
2022/12/24 00:13:55;;;;;;;16.25;9.18;;;;;;;-0.42;78.74;101342.33;1964943;73;21140;-46
2022/12/24 00:16:24;;;;;;;24.80;11.15;;;;;;;-0.42;78.74;101342.33;1964724;73;21144;-47
2022/12/24 00:18:53;;;;;;;23.87;9.80;;;;;;;-0.43;78.84;101339.28;1964769;73;21149;-48
2022/12/24 00:21:22;;;;;;;15.75;6.67;;;;;;;-0.44;78.99;101344.89;1964811;73;21128;-46
2022/12/24 00:23:51;;;;;;;17.17;7.83;;;;;;;-0.46;79.07;101332.75;1964822;73;21058;-47
2022/12/24 00:26:20;;;;;;;15.15;7.87;;;;;;;-0.47;79.04;101334.48;1964804;73;21007;-46
2022/12/24 00:28:48;;;;;;;14.47;7.20;;;;;;;-0.46;78.95;101330.17;1964723;73;21006;-46
2022/12/24 00:31:18;;;;;;;21.97;9.05;;;;;;;-0.48;78.88;101331.47;1964841;73;21149;-50
2022/12/24 00:33:48;;;;;;;19.98;9.48;;;;;;;-0.52;78.89;101330.95;1964757;73;21547;-50
2022/12/24 00:36:17;;;;;;;20.97;8.83;;;;;;;-0.52;79.04;101329.66;1964926;73;21058;-47
2022/12/24 00:38:47;;;;;;;28.83;8.60;;;;;;;-0.53;79.07;101323.19;1964788;73;21480;-46
2022/12/24 00:41:24;;;;;;;19.50;10.60;;;;;;;-0.54;79.14;101319.70;1964706;73;21470;-46
2022/12/24 00:44:01;;;;;;;21.50;9.18;;;;;;;-0.55;79.14;101316.69;1964818;73;21031;-46
2022/12/24 00:46:32;;;;;;;24.15;10.35;;;;;;;-0.57;79.17;101318.39;1964919;73;21030;-46
2022/12/24 00:49:01;;;;;;;22.25;7.03;;;;;;;-0.56;79.34;101313.64;1964798;73;21551;-46
2022/12/24 00:51:30;;;;;;;13.65;7.37;;;;;;;-0.57;79.33;101308.44;1950329;73;21129;-47
2022/12/24 00:53:59;;;;;;;21.82;9.35;;;;;;;-0.57;79.39;101308.04;1943348;74;21103;-46
2022/12/24 00:56:27;;;;;;;11.63;5.47;;;;;;;-0.58;79.66;101311.45;1943289;74;21465;-47
2022/12/24 00:58:57;;;;;;;20.70;9.38;;;;;;;-0.57;79.54;101301.57;1943271;74;21583;-46
2022/12/24 01:01:27;;;;;;;23.45;11.38;;;;;;;-0.57;79.67;101302.87;1943276;74;21522;-46
2022/12/24 01:05:09;;;;;;;21.55;10.00;;;;;;;-0.58;79.66;101299.81;1943275;74;21102;-47
2022/12/24 01:06:26;;;;;;;26.87;11.70;;;;;;;-0.62;79.85;101301.91;1940501;74;21078;-46
2022/12/24 01:08:55;;;;;;;18.90;10.18;;;;;;;-0.64;79.91;101302.31;1943308;74;21026;-50
2022/12/24 01:11:24;;;;;;;23.38;10.78;;;;;;;-0.64;79.87;101304.91;1943258;74;21057;-47
2022/12/24 01:13:52;;;;;;;4.37;3.80;;;;;;;-0.68;79.84;101298.81;1943230;74;21058;-46
2022/12/24 01:16:21;;;;;;;25.35;9.85;;;;;;;-0.68;79.70;101306.57;1943288;74;21062;-47
2022/12/24 01:18:50;;;;;;;28.00;10.93;;;;;;;-0.67;79.71;101302.26;1943167;74;21046;-47
2022/12/24 01:21:18;;;;;;;18.60;7.45;;;;;;;-0.64;79.51;101304.91;1943186;74;21096;-51
2022/12/24 01:23:47;;;;;;;20.72;9.30;;;;;;;-0.61;79.41;101296.77;1943323;74;21066;-96
2022/12/24 01:26:16;;;;;;;21.27;9.63;;;;;;;-0.61;79.25;101303.23;1943360;74;21070;-48
2022/12/24 01:28:44;;;;;;;13.13;6.55;;;;;;;-0.59;79.04;101308.41;1943254;74;21031;-46
2022/12/24 01:31:16;;;;;;;20.23;8.08;;;;;;;-0.60;79.18;101310.56;1943144;74;21035;-46
2022/12/24 01:33:46;;;;;;;19.87;10.68;;;;;;;-0.60;79.18;101318.33;1943190;74;21555;-47
2022/12/24 01:36:15;;;;;;;12.18;6.25;;;;;;;-0.65;79.48;101314.36;1943344;74;21007;-46
2022/12/24 01:38:43;;;;;;;20.05;9.75;;;;;;;-0.67;79.33;101313.89;1943210;74;21092;-47
2022/12/24 01:44:19;;;;;;;26.07;12.23;;;;;;;-0.72;79.35;101315.13;1943220;74;21117;-48
2022/12/24 01:46:50;;;;;;;22.10;9.33;;;;;;;-0.78;79.53;101310.70;1942769;73;21035;-48
2022/12/24 01:49:19;;;;;;;21.95;9.20;;;;;;;-0.86;79.57;101307.13;1943384;74;21121;-49
2022/12/24 01:51:53;;;;;;;14.47;7.58;;;;;;;-0.88;79.48;101309.25;1936710;73;21083;-49
2022/12/24 01:54:30;;;;;;;21.33;8.38;;;;;;;-0.94;79.55;101303.55;1929508;74;21533;-47
2022/12/24 01:57:02;;;;;;;18.00;7.97;;;;;;;-0.94;79.47;101306.54;1930161;74;21023;-51
2022/12/24 01:59:32;;;;;;;23.47;9.93;;;;;;;-0.97;79.48;101302.20;1929606;74;21136;-50
2022/12/24 02:02:02;;;;;;;12.73;6.12;;;;;;;-1.00;79.48;101302.14;1930305;74;21007;-51
2022/12/24 02:05:02;;;;;;;22.17;8.33;;;;;;;-0.99;79.44;101300.02;1930093;74;21019;-48
2022/12/24 02:07:31;;;;;;;17.48;8.20;;;;;;;-0.99;79.35;101302.59;1930028;74;21462;-49
2022/12/24 02:10:02;;;;;;;18.42;8.20;;;;;;;-1.01;79.48;101292.66;1930078;74;21472;-50
2022/12/24 02:12:33;;;;;;;19.25;8.70;;;;;;;-0.99;79.29;101298.72;1930072;74;21096;-48
2022/12/24 02:15:03;;;;;;;7.60;4.20;;;;;;;-1.01;79.24;101295.24;1929965;74;21027;-49
2022/12/24 02:17:49;;;;;;;23.00;9.23;;;;;;;-1.00;79.30;101298.26;1929958;74;21026;-47
2022/12/24 02:20:48;;;;;;;16.73;6.37;;;;;;;-1.00;79.30;101303.43;1924981;74;21055;-48
2022/12/24 02:23:23;;;;;;;22.05;8.98;;;;;;;-1.03;79.17;101300.81;1901957;74;21504;-54
2022/12/24 02:26:11;;;;;;;16.17;9.28;;;;;;;-1.03;79.22;101299.52;1927186;74;21165;-51
2022/12/24 02:28:45;;;;;;;21.42;9.13;;;;;;;-1.06;79.37;101296.88;1908442;75;21031;-52
2022/12/24 02:31:23;;;;;;;17.62;7.80;;;;;;;-1.04;79.52;101296.47;1884635;75;21633;-52
2022/12/24 02:33:54;;;;;;;11.18;5.58;;;;;;;-1.05;79.54;101300.78;1918253;74;21043;-49
2022/12/24 02:36:34;;;;;;;22.07;9.05;;;;;;;-1.02;79.44;101312.88;1888469;75;21034;-54
2022/12/24 02:39:06;;;;;;;3.08;2.20;;;;;;;-1.00;79.30;101313.77;1895994;74;21022;-48
2022/12/24 02:44:27;;;;;;;10.65;6.42;;;;;;;-0.95;79.08;101312.14;1889489;75;21025;-52
2022/12/24 02:46:57;;;;;;;20.25;8.10;;;;;;;-0.92;78.98;101316.08;1891199;75;21526;-46
2022/12/24 02:49:26;;;;;;;30.30;9.70;;;;;;;-0.90;78.94;101307.92;1902965;75;21059;-48
2022/12/24 02:51:55;;;;;;;21.95;8.85;;;;;;;-0.88;78.91;101315.72;1922925;74;21576;-47
2022/12/24 02:54:24;;;;;;;15.93;7.80;;;;;;;-0.88;78.81;101311.41;1942933;73;21051;-48
2022/12/24 02:57:07;;;;;;;28.73;11.73;;;;;;;-0.88;78.79;101320.45;1921865;75;21075;-48
2022/12/24 02:59:48;;;;;;;18.67;8.78;;;;;;;-0.89;78.67;101322.58;1921936;74;21094;-48
2022/12/24 03:02:19;;;;;;;24.37;11.10;;;;;;;-0.89;78.57;101319.99;1923995;74;21039;-48
2022/12/24 03:05:06;;;;;;;23.40;11.15;;;;;;;-0.90;78.50;101318.27;1922965;74;21120;-49
2022/12/24 03:07:37;;;;;;;18.48;10.08;;;;;;;-0.91;78.50;101320.82;1943768;73;21583;-51
2022/12/24 03:10:24;;;;;;;34.23;12.18;;;;;;;-0.91;78.36;101315.66;1956564;73;21003;-54
2022/12/24 03:12:58;;;;;;;20.40;10.72;;;;;;;-0.93;78.25;101325.96;1956033;73;21490;-58
2022/12/24 03:15:27;;;;;;;22.82;11.90;;;;;;;-0.94;78.18;101336.27;1974108;72;21502;-53
2022/12/24 03:17:59;;;;;;;35.83;15.03;;;;;;;-0.98;78.16;101336.63;1943886;73;21531;-54
2022/12/24 03:20:36;;;;;;;52.90;19.07;;;;;;;-1.00;78.17;101340.91;1911187;74;21089;-48
2022/12/24 03:23:05;;;;;;;32.78;14.10;;;;;;;-1.01;78.18;101350.82;1923053;74;21031;-50
2022/12/24 03:25:36;;;;;;;44.60;12.80;;;;;;;-1.03;78.13;101344.75;1924209;73;21054;-52
2022/12/24 03:28:07;;;;;;;25.17;9.35;;;;;;;-1.05;78.08;101346.41;1886797;76;21162;-54
2022/12/24 03:30:36;;;;;;;29.15;10.85;;;;;;;-1.06;78.05;101345.55;1886855;76;21022;-52
2022/12/24 03:33:04;;;;;;;24.92;10.75;;;;;;;-1.07;78.02;101346.81;1893400;74;21058;-50
2022/12/24 03:35:33;;;;;;;28.92;11.48;;;;;;;-1.10;78.04;101339.02;1919391;75;21113;-49
2022/12/24 03:38:02;;;;;;;30.82;10.08;;;;;;;-1.11;78.01;101342.43;1916832;75;21035;-51
2022/12/24 03:40:31;;;;;;;37.17;11.73;;;;;;;-1.13;77.93;101345.41;1955452;73;21007;-49
2022/12/24 03:42:59;;;;;;;20.27;8.30;;;;;;;-1.16;78.09;101341.07;1889246;76;21066;-48
2022/12/24 03:45:28;;;;;;;27.45;11.85;;;;;;;-1.17;78.23;101338.88;1889245;76;21114;-51
2022/12/24 03:47:57;;;;;;;25.85;11.57;;;;;;;-1.17;78.19;101344.48;1889158;76;21197;-50
2022/12/24 03:50:26;;;;;;;28.80;10.00;;;;;;;-1.15;78.24;101339.35;1889218;76;21082;-50
2022/12/24 03:52:55;;;;;;;13.32;7.95;;;;;;;-1.18;78.13;101341.03;1913630;74;21506;-51
2022/12/24 03:55:25;;;;;;;26.35;11.03;;;;;;;-1.17;78.10;101336.30;1915736;75;21151;-50
2022/12/24 03:57:53;;;;;;;23.07;8.40;;;;;;;-1.20;78.10;101335.37;1915852;75;21439;-49
2022/12/24 04:00:22;;;;;;;35.35;6.45;;;;;;;-1.23;78.13;101332.32;1916010;75;21161;-52
2022/12/24 04:02:51;;;;;;;26.70;10.38;;;;;;;-1.25;78.10;101331.42;1908180;74;21048;-49
2022/12/24 04:05:21;;;;;;;23.10;11.95;;;;;;;-1.26;78.11;101334.84;1900811;74;21018;-49
2022/12/24 04:07:49;;;;;;;30.27;13.68;;;;;;;-1.30;78.18;101340.80;1933707;74;21540;-49
2022/12/24 04:10:18;;;;;;;24.77;12.63;;;;;;;-1.29;78.18;101340.36;1933883;73;21131;-49
2022/12/24 04:12:47;;;;;;;26.37;11.68;;;;;;;-1.34;78.19;101345.45;1967831;73;21050;-48
2022/12/24 04:15:16;;;;;;;26.87;12.28;;;;;;;-1.34;78.15;101338.14;1968480;73;21038;-49
2022/12/24 04:17:44;;;;;;;21.55;11.12;;;;;;;-1.36;78.12;101342.84;1968679;73;21070;-53
2022/12/24 04:20:13;;;;;;;19.05;9.13;;;;;;;-1.37;78.24;101344.09;1968407;73;21039;-49
2022/12/24 04:22:42;;;;;;;23.35;11.20;;;;;;;-1.38;78.29;101338.50;1966233;73;21046;-50
2022/12/24 04:25:11;;;;;;;21.12;9.88;;;;;;;-1.34;78.27;101338.14;1968847;73;21124;-49
2022/12/24 04:27:39;;;;;;;20.60;8.33;;;;;;;-1.36;78.35;101335.09;1968846;73;21030;-50
2022/12/24 04:30:09;;;;;;;22.80;11.40;;;;;;;-1.34;78.23;101340.72;1968977;73;21066;-51
2022/12/24 04:32:38;;;;;;;17.95;7.47;;;;;;;-1.33;78.40;101342.02;1951164;73;21035;-50
2022/12/24 04:35:07;;;;;;;31.95;9.48;;;;;;;-1.31;78.20;101345.53;1900678;75;21167;-49
2022/12/24 04:37:36;;;;;;;18.92;9.53;;;;;;;-1.30;78.13;101342.09;1898955;75;21120;-48
2022/12/24 04:40:05;;;;;;;19.35;7.90;;;;;;;-1.29;78.09;101343.84;1900722;75;21074;-49
2022/12/24 04:42:34;;;;;;;19.00;8.63;;;;;;;-1.25;78.04;101344.34;1901211;74;21053;-47
2022/12/24 04:45:03;;;;;;;22.32;8.78;;;;;;;-1.22;78.03;101340.94;1900831;75;21112;-48
2022/12/24 04:47:31;;;;;;;13.20;6.58;;;;;;;-1.21;77.98;101343.55;1933805;74;21101;-54
2022/12/24 04:50:00;;;;;;;27.10;8.73;;;;;;;-1.19;78.06;101344.45;1933847;74;21042;-48
2022/12/24 04:52:29;;;;;;;17.65;8.05;;;;;;;-1.20;78.03;101344.02;1934948;73;21102;-47
2022/12/24 04:54:57;;;;;;;23.25;9.25;;;;;;;-1.18;78.14;101347.89;1889562;75;21541;-48
2022/12/24 04:57:26;;;;;;;21.30;10.13;;;;;;;-1.18;78.06;101351.38;1923847;74;21110;-48
2022/12/24 04:59:55;;;;;;;18.73;7.78;;;;;;;-1.18;78.08;101351.38;1923610;74;21123;-50
2022/12/24 05:02:23;;;;;;;22.25;9.70;;;;;;;-1.14;78.00;101353.99;1958465;73;21031;-50
2022/12/24 05:04:53;;;;;;;30.77;10.63;;;;;;;-1.13;77.89;101357.05;1958566;73;21156;-49
2022/12/24 05:07:21;;;;;;;36.33;11.00;;;;;;;-1.15;77.87;101354.42;1958453;73;21030;-48
2022/12/24 05:09:50;;;;;;;26.05;8.58;;;;;;;-1.18;77.87;101352.67;1955879;73;21034;-48
2022/12/24 05:12:18;;;;;;;25.08;10.30;;;;;;;-1.15;77.87;101352.27;1923725;74;21034;-49
2022/12/24 05:14:47;;;;;;;25.57;9.60;;;;;;;-1.14;77.79;101347.14;1923799;74;21031;-49
2022/12/24 05:17:16;;;;;;;28.17;8.78;;;;;;;-1.14;77.87;101347.53;1923795;74;21015;-53
2022/12/24 05:19:44;;;;;;;35.13;8.78;;;;;;;-1.12;77.89;101346.74;1957893;73;21100;-55
2022/12/24 05:27:46;;;;;;;26.48;11.97;;;;;;;-0.90;77.82;101355.76;1922673;75;21030;-54
2022/12/24 05:30:15;;;;;;;15.88;7.83;;;;;;;-0.68;77.74;101365.16;1958590;73;21470;-54
2022/12/24 05:32:43;;;;;;;32.95;11.03;;;;;;;-0.51;77.72;101366.33;1940849;74;21027;-54
2022/12/24 05:35:12;;;;;;;19.85;8.68;;;;;;;-0.25;77.55;101359.41;1921895;74;21188;-54
2022/12/24 05:37:41;;;;;;;29.70;12.05;;;;;;;0.04;77.31;101365.42;1923969;74;21070;-54
2022/12/24 05:40:10;;;;;;;28.60;13.93;;;;;;;0.36;76.73;101362.84;1924090;73;21057;-52
2022/12/24 05:42:39;;;;;;;31.05;13.10;;;;;;;0.67;76.17;101364.53;1902380;74;21065;-52
2022/12/24 05:45:09;;;;;;;26.25;12.25;;;;;;;1.00;75.61;101357.98;1924073;74;21015;-55
2022/12/24 05:47:39;;;;;;;15.13;9.88;;;;;;;1.34;75.11;101356.55;1924010;74;21105;-55
2022/12/24 05:50:08;;;;;;;29.23;10.95;;;;;;;1.72;74.58;101348.66;1923923;74;21156;-55
2022/12/24 05:52:37;;;;;;;20.00;8.15;;;;;;;2.06;74.18;101350.16;1926283;74;21046;-55
2022/12/24 05:55:07;;;;;;;17.52;9.33;;;;;;;2.37;73.52;101347.72;1914622;74;21063;-56
2022/12/24 05:57:36;;;;;;;13.58;6.90;;;;;;;2.57;72.91;101347.38;1910870;75;21117;-55
2022/12/24 06:00:06;;;;;;;15.28;6.22;;;;;;;2.70;72.66;101346.98;1909884;75;21035;-51
2022/12/24 06:02:36;;;;;;;19.67;6.80;;;;;;;2.87;72.51;101353.52;1897970;75;21222;-50
2022/12/24 06:05:05;;;;;;;14.15;7.37;;;;;;;2.87;72.66;101350.92;1910721;75;21117;-49
2022/12/24 06:07:34;;;;;;;14.78;6.58;;;;;;;3.09;72.49;101348.80;1941947;74;21023;-50
2022/12/24 06:10:03;;;;;;;14.18;7.25;;;;;;;3.45;72.16;101351.45;1944492;74;21140;-52
2022/12/24 06:12:32;;;;;;;14.13;7.15;;;;;;;3.82;71.82;101350.98;1940768;74;21153;-50
2022/12/24 06:15:01;;;;;;;13.65;7.10;;;;;;;4.17;71.57;101348.74;1878074;76;21042;-50
2022/12/24 06:17:29;;;;;;;22.15;9.30;;;;;;;4.74;71.30;101351.13;1876722;76;21079;-50
2022/12/24 06:19:58;;;;;;;23.47;8.85;;;;;;;5.30;70.93;101345.11;1878174;76;21023;-54
2022/12/24 06:22:27;;;;;;;20.37;9.33;;;;;;;5.76;70.47;101342.55;1876680;76;21015;-53
2022/12/24 06:24:55;;;;;;;21.68;9.15;;;;;;;6.24;70.02;101337.72;1935440;74;21089;-48
2022/12/24 06:27:24;;;;;;;21.90;9.95;;;;;;;6.75;69.64;101339.69;1920084;74;21051;-55
2022/12/24 06:29:53;;;;;;;24.12;10.25;;;;;;;7.20;69.12;101339.06;1876591;76;21129;-58
2022/12/24 06:32:21;;;;;;;23.27;9.53;;;;;;;7.37;68.43;101338.80;1929443;74;21035;-54
2022/12/24 06:34:50;;;;;;;16.05;8.23;;;;;;;6.63;68.71;101334.64;1910875;75;21086;-54
2022/12/24 06:37:18;;;;;;;14.20;7.78;;;;;;;6.24;68.70;101336.86;1876605;76;21038;-49
2022/12/24 06:39:47;;;;;;;19.57;9.35;;;;;;;6.52;67.96;101335.63;1910727;75;21067;-52
2022/12/24 06:42:16;;;;;;;23.62;10.45;;;;;;;6.93;67.15;101326.37;1904402;75;21130;-52
2022/12/24 06:44:45;;;;;;;14.68;7.87;;;;;;;7.32;66.65;101321.41;1876626;76;21051;-48
2022/12/24 06:47:13;;;;;;;12.85;6.95;;;;;;;7.65;66.09;101319.08;1876633;76;21132;-51
2022/12/24 06:49:42;;;;;;;16.27;7.17;;;;;;;7.99;65.83;101314.55;1876649;76;21070;-51
2022/12/24 06:52:11;;;;;;;12.30;6.60;;;;;;;8.48;65.44;101309.66;1878807;75;21037;-54
2022/12/24 06:54:39;;;;;;;14.38;6.20;;;;;;;8.98;64.83;101315.11;1915395;73;21134;-52
2022/12/24 06:57:08;;;;;;;14.30;6.17;;;;;;;9.42;64.00;101308.78;1933954;74;21138;-52
2022/12/24 06:59:37;;;;;;;17.00;6.35;;;;;;;9.95;63.60;101309.59;1934030;74;21094;-49
2022/12/24 07:02:06;;;;;;;19.65;8.23;;;;;;;10.41;62.86;101312.28;1942179;73;21100;-49
2022/12/24 07:04:35;;;;;;;20.43;7.85;;;;;;;10.97;62.07;101314.13;1950660;73;21113;-51
2022/12/24 07:07:03;;;;;;;17.07;7.25;;;;;;;11.52;61.36;101321.13;1933772;74;21032;-50
2022/12/24 07:09:32;;;;;;;18.02;8.18;;;;;;;12.14;60.23;101325.17;1934031;74;21113;-51
2022/12/24 07:12:01;;;;;;;16.20;7.08;;;;;;;12.54;59.71;101323.23;1934468;73;21036;-53
2022/12/24 07:14:29;;;;;;;18.50;6.72;;;;;;;12.19;59.67;101331.16;1926494;74;21191;-49
2022/12/24 07:16:58;;;;;;;19.15;7.42;;;;;;;11.22;60.28;101332.24;1918853;73;21119;-49
2022/12/24 07:19:27;;;;;;;19.05;8.08;;;;;;;10.43;60.98;101330.20;1935535;73;21043;-49
2022/12/24 07:21:55;;;;;;;20.60;7.25;;;;;;;10.19;61.14;101329.56;1933809;74;21094;-49
2022/12/24 07:24:24;;;;;;;19.67;8.03;;;;;;;10.09;61.02;101332.03;1933942;74;21035;-50
2022/12/24 07:26:53;;;;;;;19.52;8.50;;;;;;;9.68;61.44;101335.32;1933888;74;21056;-49
2022/12/24 07:29:22;;;;;;;22.65;8.75;;;;;;;9.36;61.83;101333.06;1933716;74;21098;-48
2022/12/24 07:31:50;;;;;;;19.55;8.68;;;;;;;9.16;62.13;101339.64;1933590;74;21067;-48
2022/12/24 07:34:19;;;;;;;19.57;8.40;;;;;;;8.95;62.30;101345.41;1915845;75;21063;-51
2022/12/24 07:36:48;;;;;;;22.48;9.33;;;;;;;8.60;62.73;101339.17;1930248;73;21108;-48
2022/12/24 07:39:16;;;;;;;17.17;8.63;;;;;;;8.30;63.01;101340.19;1930014;74;21023;-51
2022/12/24 07:41:45;;;;;;;18.10;9.08;;;;;;;8.04;63.39;101333.69;1929944;74;20999;-49
2022/12/24 07:44:15;;;;;;;28.45;9.83;;;;;;;7.91;63.64;101336.09;1930088;74;21509;-50
2022/12/24 07:46:44;;;;;;;23.80;9.10;;;;;;;7.79;63.89;101342.44;1932173;73;21807;-49
2022/12/24 07:49:13;;;;;;;19.73;7.90;;;;;;;7.81;63.92;101337.17;1929961;74;21038;-51
2022/12/24 07:51:42;;;;;;;27.30;10.03;;;;;;;7.81;63.85;101335.41;1929928;74;21050;-51
2022/12/24 07:54:10;;;;;;;29.60;12.93;;;;;;;7.81;63.97;101333.24;1930092;74;21094;-49
2022/12/24 07:56:39;;;;;;;29.37;12.88;;;;;;;7.96;63.64;101320.30;1921663;74;21066;-50
2022/12/24 07:59:08;;;;;;;27.87;13.20;;;;;;;7.93;63.59;101318.61;1917374;73;21038;-50
2022/12/24 08:01:44;;;;;;;29.37;12.23;;;;;;;7.81;63.59;101319.67;1921939;73;21110;-53
2022/12/24 08:04:13;;;;;;;34.55;12.68;;;;;;;7.72;63.67;101328.56;1918606;73;21103;-54
2022/12/24 08:06:42;;;;;;;55.70;18.90;;;;;;;7.58;63.86;101317.48;1924010;74;21183;-50
2022/12/24 08:09:13;;;;;;;49.67;16.77;;;;;;;7.52;64.07;101316.26;1923820;74;21152;-48
2022/12/24 08:11:41;;;;;;;49.03;16.85;;;;;;;7.75;63.95;101298.83;1923672;74;21113;-48
2022/12/24 08:14:09;;;;;;;73.87;18.48;;;;;;;8.98;62.16;101300.67;1923821;74;21011;-49
2022/12/24 08:16:38;;;;;;;72.20;15.45;;;;;;;10.31;60.43;101295.05;1923815;74;21034;-50
2022/12/24 08:19:07;;;;;;;54.18;12.82;;;;;;;10.15;60.68;101297.21;1917565;74;21082;-53
2022/12/24 08:21:36;;;;;;;71.92;13.93;;;;;;;9.69;61.37;101286.64;1922421;74;21478;-52
2022/12/24 08:24:05;;;;;;;66.42;14.13;;;;;;;9.25;62.02;101292.58;1921843;75;21047;-51
2022/12/24 08:26:34;;;;;;;41.80;11.25;;;;;;;8.88;62.50;101293.00;1900186;74;21093;-48
2022/12/24 08:29:04;;;;;;;37.83;9.53;;;;;;;8.61;62.88;101287.95;1923834;74;21095;-48
2022/12/24 08:31:38;;;;;;;20.75;8.83;;;;;;;8.31;63.29;101288.11;1889238;76;21047;-47
2022/12/24 08:34:05;;;;;;;19.95;7.08;;;;;;;8.07;63.75;101294.27;1888564;76;21058;-50
2022/12/24 08:36:34;;;;;;;16.07;7.62;;;;;;;7.82;64.25;101286.03;1890446;73;21039;-48
2022/12/24 08:39:03;;;;;;;17.73;7.62;;;;;;;7.61;64.48;101286.41;1886364;76;21470;-49
2022/12/24 08:41:32;;;;;;;16.35;6.65;;;;;;;7.42;64.77;101284.57;1886635;76;21070;-51
2022/12/24 08:44:01;;;;;;;14.30;6.70;;;;;;;7.31;64.96;101275.58;1926201;74;21560;-53
2022/12/24 08:46:30;;;;;;;17.73;7.45;;;;;;;7.19;65.09;101275.31;1903115;75;21125;-53
2022/12/24 08:48:59;;;;;;;16.10;7.90;;;;;;;7.08;65.10;101273.33;1902899;75;21036;-51
2022/12/24 08:51:27;;;;;;;18.37;7.55;;;;;;;7.00;65.20;101268.67;1902879;75;21075;-52
2022/12/24 08:53:56;;;;;;;22.22;9.20;;;;;;;6.97;65.42;101269.56;1902791;75;21117;-49
2022/12/24 08:56:25;;;;;;;20.43;7.97;;;;;;;6.94;65.49;101270.94;1921363;74;21015;-49
2022/12/24 08:58:54;;;;;;;18.92;9.18;;;;;;;6.91;65.58;101267.91;1938268;73;21141;-52
2022/12/24 09:01:22;;;;;;;20.72;8.48;;;;;;;6.90;65.62;101262.72;1938359;74;21051;-51
2022/12/24 09:03:51;;;;;;;19.57;8.63;;;;;;;6.89;65.65;101258.36;1938184;74;21589;-50
2022/12/24 09:06:20;;;;;;;20.82;9.28;;;;;;;6.89;65.72;101261.83;1938448;74;21101;-51
2022/12/24 09:08:49;;;;;;;21.07;8.58;;;;;;;6.91;65.83;101261.81;1938370;74;21093;-51
2022/12/24 09:11:19;;;;;;;31.37;10.55;;;;;;;6.85;65.96;101258.84;1938373;74;21086;-51
2022/12/24 09:13:48;;;;;;;25.20;9.65;;;;;;;6.82;66.07;101252.79;1938321;74;21027;-52
2022/12/24 09:16:17;;;;;;;28.57;9.40;;;;;;;6.76;66.28;101263.77;1938199;74;21031;-50
2022/12/24 09:18:46;;;;;;;28.60;9.28;;;;;;;6.79;66.35;101259.38;1938298;74;21039;-51
2022/12/24 09:21:16;;;;;;;18.00;7.08;;;;;;;6.88;66.41;101255.30;1938517;74;21438;-49
2022/12/24 09:23:47;;;;;;;18.82;7.83;;;;;;;7.03;66.26;101251.61;1938431;74;21076;-52
2022/12/24 09:26:18;;;;;;;25.17;8.93;;;;;;;7.18;65.94;101245.25;1938508;74;21032;-51
2022/12/24 09:28:47;;;;;;;21.07;8.10;;;;;;;7.35;65.63;101238.81;1938331;74;21025;-52
2022/12/24 09:31:16;;;;;;;28.83;9.20;;;;;;;7.56;65.32;101240.61;1938325;74;21079;-51
2022/12/24 09:33:47;;;;;;;31.45;9.95;;;;;;;7.65;65.14;101235.20;1938228;74;21482;-51
2022/12/24 09:36:16;;;;;;;20.65;8.88;;;;;;;7.80;65.03;101229.25;1938346;74;21115;-51
2022/12/24 09:38:45;;;;;;;19.85;9.78;;;;;;;8.25;64.26;101229.22;1938544;74;21028;-51
2022/12/24 09:41:16;;;;;;;25.25;10.00;;;;;;;8.40;63.90;101231.50;1938226;74;21027;-53
2022/12/24 09:43:48;;;;;;;27.40;9.20;;;;;;;8.41;63.87;101234.55;1938167;74;21600;-53
2022/12/24 09:46:31;;;;;;;19.25;8.68;;;;;;;8.34;63.99;101232.95;1938398;74;21028;-51
2022/12/24 09:49:03;;;;;;;13.15;7.55;;;;;;;8.18;64.16;101233.72;1938457;74;21032;-50
2022/12/24 09:52:02;;;;;;;26.55;9.95;;;;;;;8.05;64.43;101226.55;1938505;74;21095;-53
2022/12/24 09:54:37;;;;;;;28.60;10.32;;;;;;;7.99;64.64;101228.46;1938263;74;21127;-50
2022/12/24 09:57:09;;;;;;;31.12;12.00;;;;;;;8.15;64.52;101225.05;1915562;74;20996;-52
2022/12/24 09:59:46;;;;;;;21.00;9.25;;;;;;;8.20;64.46;101218.81;1913798;74;21079;-52
2022/12/24 10:02:19;;;;;;;35.43;12.45;;;;;;;8.20;64.49;101214.02;1925915;74;21097;-52
2022/12/24 10:04:49;;;;;;;40.78;12.60;;;;;;;8.17;64.55;101219.32;1926299;74;21010;-50
2022/12/24 10:07:40;;;;;;;31.90;12.43;;;;;;;8.19;64.66;101220.15;1926143;74;21050;-52
2022/12/24 10:10:30;;;;;;;36.53;10.95;;;;;;;8.42;64.43;101216.61;1924890;74;21034;-49
2022/12/24 10:13:13;;;;;;;31.65;11.20;;;;;;;8.49;64.29;101222.14;1926282;74;21030;-52
2022/12/24 10:15:54;;;;;;;33.60;11.68;;;;;;;8.61;64.02;101221.02;1926438;74;21086;-48
2022/12/24 10:18:40;;;;;;;35.68;10.85;;;;;;;8.63;63.94;101218.33;1926118;74;21097;-52
2022/12/24 10:21:29;;;;;;;23.18;9.63;;;;;;;8.58;63.86;101214.97;1926045;74;21042;-48
2022/12/24 10:24:00;;;;;;;34.20;10.55;;;;;;;9.41;62.67;101215.53;1921746;74;21045;-51
2022/12/24 10:26:32;;;;;;;22.45;9.40;;;;;;;10.47;60.49;101212.97;1926055;74;21058;-49
2022/12/24 10:29:22;;;;;;;37.80;10.65;;;;;;;10.43;60.27;101214.37;1925985;74;21063;-51
2022/12/24 10:32:09;;;;;;;24.75;9.83;;;;;;;10.34;60.49;101212.02;1925756;74;21038;-53
2022/12/24 10:34:43;;;;;;;22.15;9.03;;;;;;;10.59;59.88;101204.23;1926097;74;21034;-51
2022/12/24 10:37:18;;;;;;;29.67;10.30;;;;;;;10.24;60.60;101206.61;1905522;75;21097;-52
2022/12/24 10:39:46;;;;;;;26.70;9.75;;;;;;;10.45;60.51;101209.52;1905959;75;21508;-49
2022/12/24 10:42:16;;;;;;;32.58;10.55;;;;;;;11.84;57.86;101189.42;1926251;74;21167;-52
2022/12/24 10:44:48;;;;;;;25.85;9.38;;;;;;;12.43;56.39;101197.33;1926167;74;21468;-50
2022/12/24 10:47:19;;;;;;;29.63;10.38;;;;;;;13.58;54.35;101192.14;1926105;74;21552;-53
2022/12/24 10:49:50;;;;;;;33.02;11.38;;;;;;;14.45;52.95;101196.51;1926130;74;21104;-51
2022/12/24 10:52:22;;;;;;;29.98;11.18;;;;;;;14.95;51.82;101193.19;1925980;74;21608;-53
2022/12/24 10:55:14;;;;;;;25.92;10.43;;;;;;;14.95;51.73;101197.17;1926154;74;21059;-52
2022/12/24 10:57:40;;;;;;;26.82;9.93;;;;;;;14.59;52.42;101194.09;1925647;74;21148;-52
2022/12/24 11:00:19;;;;;;;28.52;10.60;;;;;;;13.64;54.01;101194.51;1894205;75;21550;-53
2022/12/24 11:02:49;;;;;;;38.33;12.30;;;;;;;12.80;55.70;101196.28;1874461;76;21137;-53
2022/12/24 11:05:33;;;;;;;36.55;11.97;;;;;;;12.03;56.97;101192.73;1878244;76;21109;-50
2022/12/24 11:08:05;;;;;;;;;;;;;;;11.58;57.75;101192.56;1880976;76;21109;-50
2022/12/24 11:10:36;;;;;;;31.80;11.70;;;;;;;11.11;58.46;101198.17;1878142;76;20418;-49
2022/12/24 11:13:05;;;;;;;36.17;10.80;;;;;;;10.65;59.21;101199.69;1910696;75;21121;-50
2022/12/24 11:15:35;;;;;;;28.62;10.95;;;;;;;10.31;59.83;101195.02;1910852;75;21044;-52
2022/12/24 11:18:07;;;;;;;35.35;13.20;;;;;;;10.18;60.11;101201.51;1878110;76;21481;-48
2022/12/24 11:20:36;;;;;;;40.12;11.63;;;;;;;10.48;59.65;101202.86;1858876;77;21485;-50
2022/12/24 11:23:05;;;;;;;36.90;13.13;;;;;;;11.61;57.08;101199.95;1878256;76;21050;-49
2022/12/24 11:25:37;;;;;;;46.75;12.33;;;;;;;11.42;57.21;101199.72;1910712;75;21109;-49
2022/12/24 11:28:15;;;;;;;31.80;12.75;;;;;;;11.29;57.65;101205.91;1910886;75;21079;-50
2022/12/24 11:30:45;;;;;;;30.72;13.08;;;;;;;11.17;57.84;101208.03;1874775;76;21536;-50
2022/12/24 11:33:16;;;;;;;37.63;12.82;;;;;;;10.71;58.64;101210.87;1858374;77;21144;-51
2022/12/24 11:35:51;;;;;;;47.98;18.98;;;;;;;10.39;59.47;101207.95;1878107;76;21046;-50
2022/12/24 11:38:25;;;;;;;41.00;17.37;;;;;;;10.18;60.03;101212.03;1910778;75;21011;-50
2022/12/24 11:41:03;;;;;;;36.75;14.70;;;;;;;9.99;60.49;101215.20;1910789;75;21039;-51
2022/12/24 11:43:44;;;;;;;50.55;15.53;;;;;;;9.78;60.91;101217.16;1878147;76;21043;-50
2022/12/24 11:46:15;;;;;;;43.23;15.28;;;;;;;9.68;61.15;101226.20;1893185;76;21653;-50